createdAt,value
2022-09-16T00:02:13.516Z,97144.66
2022-09-16T00:05:16.866Z,97143.25
2022-09-16T00:08:19.854Z,97160.47
2022-09-16T00:11:22.737Z,97168.56
2022-09-16T00:14:26.836Z,97181.84
2022-09-16T00:17:30.386Z,97191.78
2022-09-16T00:20:32.277Z,97194.47
2022-09-16T00:23:34.460Z,97196.84
2022-09-16T00:26:38.623Z,97209.88
2022-09-16T00:29:40.546Z,97210.72
2022-09-16T00:32:43.047Z,97214.53
2022-09-16T00:35:44.887Z,97214.94
2022-09-16T00:38:51.397Z,97218.38
2022-09-16T00:41:53.378Z,97216.31
2022-09-16T00:44:59.689Z,97215.72
2022-09-16T00:48:05.147Z,97211.00
2022-09-16T00:51:10.896Z,97212.47
2022-09-16T00:54:14.527Z,97217.00
2022-09-16T00:57:16.674Z,97210.84
2022-09-16T01:00:18.635Z,97211.06
2022-09-16T01:03:21.790Z,97222.06
2022-09-16T01:06:24.700Z,97220.28
2022-09-16T01:09:27.057Z,97225.41
2022-09-16T01:12:30.072Z,97213.88
2022-09-16T01:15:45.017Z,97220.00
2022-09-16T01:19:10.582Z,97234.69
2022-09-16T01:22:21.091Z,97231.28
2022-09-16T01:25:32.167Z,97223.97
2022-09-16T01:28:42.522Z,97237.00
2022-09-16T01:32:03.846Z,97237.59
2022-09-16T01:35:24.951Z,97239.34
2022-09-16T01:38:37.130Z,97236.56
2022-09-16T01:41:53.113Z,97233.94
2022-09-16T01:45:07.382Z,97220.34
2022-09-16T01:48:17.428Z,97221.16
2022-09-16T01:51:47.343Z,97221.72
2022-09-16T01:55:04.757Z,97227.63
2022-09-16T01:58:36.830Z,97225.63
2022-09-16T02:01:49.346Z,97220.75
2022-09-16T02:04:55.346Z,97215.41
2022-09-16T02:08:01.694Z,97217.53
2022-09-16T02:11:06.944Z,97218.06
2022-09-16T02:14:23.382Z,97226.78
2022-09-16T02:17:27.523Z,97210.31
2022-09-16T02:20:31.014Z,97213.59
2022-09-16T02:23:40.212Z,97228.84
2022-09-16T02:26:49.828Z,97226.44
2022-09-16T02:29:56.149Z,97220.53
2022-09-16T02:33:06.217Z,97210.19
2022-09-16T02:36:08.686Z,97202.28
2022-09-16T02:39:13.697Z,97208.81
2022-09-16T02:42:16.223Z,97208.44
2022-09-16T02:45:18.499Z,97201.53
2022-09-16T02:48:27.198Z,97206.81
2022-09-16T02:51:44.565Z,97208.00
2022-09-16T02:54:54.759Z,97207.66
2022-09-16T02:57:56.912Z,97211.31
2022-09-16T03:00:59.855Z,97209.25
2022-09-16T03:04:02.075Z,97216.16
2022-09-16T03:07:07.241Z,97212.47
2022-09-16T03:10:11.161Z,97204.72
2022-09-16T03:13:22.953Z,97210.59
2022-09-16T03:16:34.846Z,97215.19
2022-09-16T03:19:43.891Z,97217.59
2022-09-16T03:23:01.740Z,97226.84
2022-09-16T03:26:21.788Z,97229.03
2022-09-16T03:29:30.163Z,97228.34
2022-09-16T03:32:36.333Z,97225.75
2022-09-16T03:35:45.259Z,97223.69
2022-09-16T03:38:47.608Z,97217.16
2022-09-16T03:41:51.777Z,97212.09
2022-09-16T03:44:53.772Z,97213.56
2022-09-16T03:47:56.194Z,97218.47
2022-09-16T03:50:58.132Z,97229.84
2022-09-16T03:54:00.099Z,97231.03
2022-09-16T03:57:02.842Z,97233.41
2022-09-16T04:00:06.838Z,97229.97
2022-09-16T04:03:13.740Z,97233.59
2022-09-16T04:06:15.565Z,97228.97
2022-09-16T04:09:18.603Z,97221.25
2022-09-16T04:12:20.477Z,97226.31
2022-09-16T04:15:22.650Z,97212.63
2022-09-16T04:18:27.000Z,97227.31
2022-09-16T04:21:32.352Z,97218.22
2022-09-16T04:24:37.174Z,97226.84
2022-09-16T04:27:39.539Z,97231.41
2022-09-16T04:30:41.609Z,97238.31
2022-09-16T04:33:43.760Z,97243.97
2022-09-16T04:36:45.689Z,97252.09
2022-09-16T04:39:47.719Z,97252.38
2022-09-16T04:42:52.074Z,97261.00
2022-09-16T04:45:55.225Z,97260.84
2022-09-16T04:49:00.182Z,97269.34
2022-09-16T04:52:03.006Z,97273.66
2022-09-16T04:55:05.675Z,97268.91
2022-09-16T04:58:11.107Z,97268.44
2022-09-16T05:01:25.186Z,97261.38
2022-09-16T05:04:27.927Z,97263.09
2022-09-16T05:07:30.259Z,97264.84
2022-09-16T05:10:35.508Z,97268.44
2022-09-16T05:13:39.052Z,97274.69
2022-09-16T05:16:44.197Z,97273.69
2022-09-16T05:19:46.389Z,97281.13
2022-09-16T05:22:53.193Z,97277.06
2022-09-16T05:25:55.467Z,97279.97
2022-09-16T05:29:02.518Z,97275.16
2022-09-16T05:32:04.925Z,97270.63
2022-09-16T05:35:10.223Z,97268.41
2022-09-16T05:38:13.596Z,97266.53
2022-09-16T05:41:15.877Z,97264.19
2022-09-16T05:44:18.009Z,97252.69
2022-09-16T05:47:20.269Z,97253.69
2022-09-16T05:50:22.837Z,97247.69
2022-09-16T05:53:25.972Z,97244.88
2022-09-16T05:56:30.745Z,97239.59
2022-09-16T05:59:32.603Z,97228.25
2022-09-16T06:02:34.894Z,97225.81
2022-09-16T06:05:36.897Z,97223.78
2022-09-16T06:08:39.740Z,97228.53
2022-09-16T06:11:45.569Z,97221.06
2022-09-16T06:14:47.711Z,97221.31
2022-09-16T06:17:50.198Z,97219.66
2022-09-16T06:20:53.375Z,97217.22
2022-09-16T06:23:56.943Z,97218.13
2022-09-16T06:26:59.364Z,97227.81
2022-09-16T06:30:01.696Z,97235.38
2022-09-16T06:33:04.271Z,97231.53
2022-09-16T06:36:08.479Z,97229.34
2022-09-16T06:39:12.231Z,97226.25
2022-09-16T06:42:14.552Z,97238.03
2022-09-16T06:45:17.374Z,97229.47
2022-09-16T06:48:19.718Z,97234.22
2022-09-16T06:51:28.453Z,97240.16
2022-09-16T06:54:30.815Z,97230.97
2022-09-16T06:57:33.636Z,97242.16
2022-09-16T07:00:35.538Z,97248.72
2022-09-16T07:03:40.608Z,97247.88
2022-09-16T07:07:08.009Z,97245.03
2022-09-16T07:10:09.318Z,97250.34
2022-09-16T07:13:11.779Z,97249.53
2022-09-16T07:16:21.358Z,97254.56
2022-09-16T07:19:24.664Z,97266.63
2022-09-16T07:22:26.749Z,97275.59
2022-09-16T07:25:35.471Z,97273.13
2022-09-16T07:28:41.478Z,97265.41
2022-09-16T07:31:43.968Z,97269.47
2022-09-16T07:34:46.037Z,97273.13
2022-09-16T07:37:50.353Z,97279.25
2022-09-16T07:40:53.721Z,97268.56
2022-09-16T07:43:59.472Z,97260.84
2022-09-16T07:47:01.590Z,97271.97
2022-09-16T07:50:05.219Z,97269.84
2022-09-16T07:53:07.253Z,97271.56
2022-09-16T07:56:15.281Z,97273.06
2022-09-16T07:59:19.492Z,97266.25
2022-09-16T08:02:21.615Z,97272.28
2022-09-16T08:05:24.033Z,97271.84
2022-09-16T08:08:26.266Z,97268.97
2022-09-16T08:11:29.277Z,97260.22
2022-09-16T08:14:31.365Z,97254.28
2022-09-16T08:17:33.596Z,97260.97
2022-09-16T08:20:37.315Z,97252.53
2022-09-16T08:23:39.773Z,97257.97
2022-09-16T08:26:41.877Z,97257.97
2022-09-16T08:29:44.100Z,97252.19
2022-09-16T08:32:46.119Z,97256.69
2022-09-16T08:35:48.789Z,97255.69
2022-09-16T08:38:53.656Z,97261.75
2022-09-16T08:41:55.612Z,97262.22
2022-09-16T08:45:00.544Z,97260.13
2022-09-16T08:48:10.937Z,97255.09
2022-09-16T08:51:16.595Z,97256.09
2022-09-16T08:54:47.111Z,97258.84
2022-09-16T08:58:15.721Z,97255.22
2022-09-16T09:01:23.667Z,97261.53
2022-09-16T09:04:25.827Z,97250.91
2022-09-16T09:07:56.128Z,97250.66
2022-09-16T09:11:13.303Z,97258.47
2022-09-16T09:14:24.557Z,97253.97
2022-09-16T09:17:29.577Z,97261.84
2022-09-16T09:20:44.123Z,97271.13
2022-09-16T09:23:52.459Z,97261.75
2022-09-16T09:27:15.552Z,97273.34
2022-09-16T09:30:26.055Z,97275.50
2022-09-16T09:33:57.051Z,97275.38
2022-09-16T09:37:18.568Z,97269.13
2022-09-16T09:40:57.080Z,97270.25
2022-09-16T09:44:08.311Z,97273.13
2022-09-16T09:47:28.008Z,97278.97
2022-09-16T09:50:44.727Z,97267.06
2022-09-16T09:53:53.111Z,97268.38
2022-09-16T09:57:00.263Z,97265.06
2022-09-16T10:00:12.197Z,97257.81
2022-09-16T10:03:17.581Z,97256.97
2022-09-16T10:06:26.436Z,97248.56
2022-09-16T10:09:28.940Z,97264.88
2022-09-16T10:12:33.344Z,97266.06
2022-09-16T10:15:35.521Z,97263.41
2022-09-16T10:18:37.824Z,97265.03
2022-09-16T10:21:46.406Z,97263.47
2022-09-16T10:24:55.115Z,97254.19
2022-09-16T10:28:00.490Z,97252.31
2022-09-16T10:31:02.880Z,97252.63
2022-09-16T10:34:37.298Z,97257.94
2022-09-16T10:37:41.732Z,97252.50
2022-09-16T10:40:53.961Z,97259.94
2022-09-16T10:44:17.693Z,97271.09
2022-09-16T10:47:25.617Z,97256.31
2022-09-16T10:50:28.235Z,97256.78
2022-09-16T10:53:56.055Z,97251.84
2022-09-16T10:56:58.462Z,97237.34
2022-09-16T11:00:13.849Z,97252.75
2022-09-16T11:03:50.428Z,97256.41
2022-09-16T11:06:59.099Z,97260.75
2022-09-16T11:10:19.501Z,97248.69
2022-09-16T11:13:48.232Z,97242.97
2022-09-16T11:17:11.748Z,97237.34
2022-09-16T11:20:40.760Z,97240.66
2022-09-16T11:24:03.364Z,97248.44
2022-09-16T11:27:37.542Z,97244.16
2022-09-16T11:31:07.089Z,97240.34
2022-09-16T11:34:34.501Z,97233.06
2022-09-16T11:37:57.847Z,97230.31
2022-09-16T11:40:59.702Z,97220.13
2022-09-16T11:44:24.156Z,97215.25
2022-09-16T11:47:26.104Z,97207.88
2022-09-16T11:51:01.949Z,97217.38
2022-09-16T11:54:41.642Z,97220.63
2022-09-16T11:57:48.809Z,97203.81
2022-09-16T12:00:52.620Z,97210.66
2022-09-16T12:04:01.030Z,97200.66
2022-09-16T12:07:25.612Z,97217.53
2022-09-16T12:10:38.374Z,97193.97
2022-09-16T12:13:45.075Z,97199.97
2022-09-16T12:16:50.865Z,97202.94
2022-09-16T12:20:01.687Z,97206.94
2022-09-16T12:23:06.791Z,97210.53
2022-09-16T12:26:20.267Z,97212.75
2022-09-16T12:29:30.169Z,97209.19
2022-09-16T12:32:39.352Z,97202.63
2022-09-16T12:36:08.908Z,97196.34
2022-09-16T12:39:12.818Z,97183.38
2022-09-16T12:42:36.616Z,97185.75
2022-09-16T12:45:44.837Z,97193.44
2022-09-16T12:48:59.895Z,97178.28
2022-09-16T12:52:17.495Z,97183.94
2022-09-16T12:55:48.715Z,97170.97
2022-09-16T12:59:21.781Z,97179.97
2022-09-16T13:02:30.634Z,97177.56
2022-09-16T13:05:34.807Z,97173.91
2022-09-16T13:08:37.270Z,97172.75
2022-09-16T13:12:24.090Z,97175.28
2022-09-16T13:15:05.533Z,97174.69
2022-09-16T13:18:18.787Z,97169.69
2022-09-16T13:21:31.191Z,97169.25
2022-09-16T13:25:15.192Z,97163.53
2022-09-16T13:28:35.360Z,97168.91
2022-09-16T13:31:47.598Z,97155.38
2022-09-16T13:35:01.044Z,97143.19
2022-09-16T13:38:15.261Z,97151.09
2022-09-16T13:41:33.575Z,97150.84
2022-09-16T13:44:41.458Z,97151.56
2022-09-16T13:47:49.581Z,97137.31
2022-09-16T13:50:54.295Z,97149.59
2022-09-16T13:54:02.783Z,97153.16
2022-09-16T13:57:12.888Z,97151.88
2022-09-16T14:00:23.389Z,97154.09
2022-09-16T14:04:07.111Z,97152.28
2022-09-16T14:07:35.540Z,97152.19
2022-09-16T14:10:59.320Z,97149.06
2022-09-16T14:14:29.816Z,97159.31
2022-09-16T14:17:42.252Z,97157.88
2022-09-16T14:21:02.100Z,97156.50
2022-09-16T14:24:20.348Z,97153.72
2022-09-16T14:27:28.936Z,97154.44
2022-09-16T14:30:31.525Z,97144.59
2022-09-16T14:33:42.404Z,97125.72
2022-09-16T14:36:46.203Z,97121.19
2022-09-16T14:39:54.473Z,97123.25
2022-09-16T14:43:05.016Z,97121.59
2022-09-16T14:46:08.063Z,97132.34
2022-09-16T14:49:12.091Z,97127.97
2022-09-16T14:52:26.759Z,97116.94
2022-09-16T14:55:40.366Z,97121.41
2022-09-16T14:58:42.305Z,97124.72
2022-09-16T15:01:44.289Z,97117.44
2022-09-16T15:04:49.766Z,97116.44
2022-09-16T15:08:12.795Z,97123.03
2022-09-16T15:11:46.010Z,97118.94
2022-09-16T15:14:40.571Z,97126.72
2022-09-16T15:17:42.674Z,97127.16
2022-09-16T15:20:51.023Z,97126.75
2022-09-16T15:23:55.607Z,97130.66
2022-09-16T15:26:58.078Z,97104.47
2022-09-16T15:30:01.348Z,97097.16
2022-09-16T15:33:03.536Z,97092.06
2022-09-16T15:36:07.905Z,97100.19
2022-09-16T15:39:35.491Z,97090.31
2022-09-16T15:42:37.680Z,97096.56
2022-09-16T15:45:40.801Z,97080.00
2022-09-16T15:48:45.508Z,97087.81
2022-09-16T15:51:49.214Z,97091.25
2022-09-16T15:54:54.539Z,97093.19
2022-09-16T15:58:06.808Z,97097.00
2022-09-16T16:01:19.535Z,97101.44
2022-09-16T16:04:24.790Z,97102.25
2022-09-16T16:07:43.496Z,97092.28
2022-09-16T16:11:12.510Z,97093.78
2022-09-16T16:14:14.375Z,97091.75
2022-09-16T16:17:21.370Z,97093.44
2022-09-16T16:20:24.239Z,97094.16
2022-09-16T16:23:26.570Z,97096.06
2022-09-16T16:26:28.570Z,97076.50
2022-09-16T16:29:30.971Z,97079.59
2022-09-16T16:32:33.162Z,97081.13
2022-09-16T16:35:35.025Z,97087.22
2022-09-16T16:38:36.993Z,97079.13
2022-09-16T16:41:38.834Z,97091.88
2022-09-16T16:44:41.116Z,97080.00
2022-09-16T16:47:44.231Z,97077.38
2022-09-16T16:50:55.651Z,97075.78
2022-09-16T16:53:57.926Z,97084.53
2022-09-16T16:57:00.593Z,97078.44
2022-09-16T17:00:03.651Z,97084.59
2022-09-16T17:03:05.817Z,97078.88
2022-09-16T17:06:09.218Z,97075.91
2022-09-16T17:09:15.742Z,97085.13
2022-09-16T17:12:18.303Z,97081.44
2022-09-16T17:15:20.282Z,97079.81
2022-09-16T17:18:22.214Z,97079.47
2022-09-16T17:21:27.001Z,97082.75
2022-09-16T17:24:29.281Z,97085.63
2022-09-16T17:27:31.468Z,97083.59
2022-09-16T17:30:34.344Z,97083.22
2022-09-16T17:33:36.609Z,97082.59
2022-09-16T17:36:41.319Z,97069.19
2022-09-16T17:39:43.199Z,97080.19
2022-09-16T17:42:45.327Z,97079.34
2022-09-16T17:45:49.524Z,97082.00
2022-09-16T17:48:51.303Z,97082.41
2022-09-16T17:51:53.938Z,97086.53
2022-09-16T17:54:56.228Z,97082.28
2022-09-16T17:57:58.283Z,97087.81
2022-09-16T18:01:24.672Z,97088.22
2022-09-16T18:04:27.074Z,97094.31
2022-09-16T18:07:28.991Z,97086.78
2022-09-16T18:10:31.961Z,97084.94
2022-09-16T18:13:36.224Z,97082.69
2022-09-16T18:16:38.777Z,97091.09
2022-09-16T18:19:40.864Z,97103.25
2022-09-16T18:22:42.839Z,97106.97
2022-09-16T18:25:44.957Z,97112.69
2022-09-16T18:29:09.166Z,97105.78
2022-09-16T18:32:11.682Z,97106.22
2022-09-16T18:35:14.516Z,97103.34
2022-09-16T18:38:19.205Z,97110.25
2022-09-16T18:41:25.018Z,97130.63
2022-09-16T18:44:29.658Z,97118.78
2022-09-16T18:47:34.421Z,97120.44
2022-09-16T18:50:36.847Z,97124.50
2022-09-16T18:53:39.905Z,97125.31
2022-09-16T18:56:43.199Z,97118.41
2022-09-16T18:59:47.658Z,97112.31
2022-09-16T19:02:52.701Z,97116.97
2022-09-16T19:05:57.028Z,97117.19
2022-09-16T19:09:09.487Z,97112.09
2022-09-16T19:12:13.842Z,97101.31
2022-09-16T19:15:16.008Z,97103.31
2022-09-16T19:18:21.475Z,97100.09
2022-09-16T19:21:24.549Z,97082.97
2022-09-16T19:24:30.887Z,97082.41
2022-09-16T19:27:36.413Z,97087.06
2022-09-16T19:30:41.429Z,97086.84
2022-09-16T19:33:45.286Z,97093.78
2022-09-16T19:36:49.288Z,97109.03
2022-09-16T19:39:51.938Z,97124.28
2022-09-16T19:42:55.621Z,97123.66
2022-09-16T19:46:12.057Z,97113.50
2022-09-16T19:49:17.732Z,97115.34
2022-09-16T19:52:19.872Z,97102.94
2022-09-16T19:55:24.359Z,97108.22
2022-09-16T19:58:27.913Z,97118.19
2022-09-16T20:01:32.307Z,97118.78
2022-09-16T20:04:34.768Z,97120.00
2022-09-16T20:07:37.184Z,97120.22
2022-09-16T20:10:39.652Z,97118.56
2022-09-16T20:13:43.008Z,97126.31
2022-09-16T20:16:45.353Z,97125.06
2022-09-16T20:19:47.728Z,97113.88
2022-09-16T20:22:50.014Z,97120.22
2022-09-16T20:25:56.972Z,97119.38
2022-09-16T20:28:59.323Z,97109.03
2022-09-16T20:32:01.933Z,97116.72
2022-09-16T20:35:04.385Z,97119.59
2022-09-16T20:38:06.580Z,97116.16
2022-09-16T20:41:12.065Z,97111.03
2022-09-16T20:44:16.083Z,97124.88
2022-09-16T20:47:18.767Z,97117.13
2022-09-16T20:50:21.003Z,97117.31
2022-09-16T20:53:23.229Z,97129.72
2022-09-16T20:56:26.749Z,97134.59
2022-09-16T20:59:29.711Z,97140.69
2022-09-16T21:02:32.522Z,97137.78
2022-09-16T21:05:34.648Z,97133.72
2022-09-16T21:08:40.097Z,97134.75
2022-09-16T21:11:45.361Z,97131.28
2022-09-16T21:14:47.494Z,97132.13
2022-09-16T21:17:49.526Z,97141.00
2022-09-16T21:21:06.119Z,97142.25
2022-09-16T21:24:08.736Z,97142.56
2022-09-16T21:27:10.739Z,97154.75
2022-09-16T21:30:13.078Z,97158.75
2022-09-16T21:33:15.607Z,97159.50
2022-09-16T21:36:19.570Z,97160.28
2022-09-16T21:39:22.127Z,97163.09
2022-09-16T21:42:24.261Z,97153.06
2022-09-16T21:45:26.284Z,97155.91
2022-09-16T21:48:29.143Z,97150.38
2022-09-16T21:51:35.436Z,97149.13
2022-09-16T21:54:37.500Z,97150.50
2022-09-16T21:57:39.371Z,97151.81
2022-09-16T22:00:41.250Z,97143.84
2022-09-16T22:03:44.032Z,97144.06
2022-09-16T22:06:46.109Z,97142.38
2022-09-16T22:09:47.951Z,97140.06
2022-09-16T22:12:49.788Z,97144.91
2022-09-16T22:15:52.636Z,97150.72
2022-09-16T22:18:55.973Z,97141.44
2022-09-16T22:21:57.800Z,97145.50
2022-09-16T22:24:59.702Z,97148.47
2022-09-16T22:28:01.663Z,97146.84
2022-09-16T22:31:15.809Z,97136.69
2022-09-16T22:34:17.993Z,97134.84
2022-09-16T22:37:19.741Z,97133.28
2022-09-16T22:40:21.807Z,97136.53
2022-09-16T22:43:23.711Z,97141.19
2022-09-16T22:46:38.891Z,97139.16
2022-09-16T22:49:40.724Z,97147.34
2022-09-16T22:52:42.559Z,97148.34
2022-09-16T22:55:44.336Z,97154.88
2022-09-16T22:58:46.843Z,97154.06
2022-09-16T23:01:49.317Z,97146.97
2022-09-16T23:04:51.229Z,97146.28
2022-09-16T23:07:55.467Z,97146.69
2022-09-16T23:10:57.382Z,97140.25
2022-09-16T23:14:01.244Z,97143.19
2022-09-16T23:17:03.012Z,97139.06
2022-09-16T23:20:05.350Z,97150.84
2022-09-16T23:23:10.071Z,97155.63
2022-09-16T23:26:18.171Z,97155.84
2022-09-16T23:29:19.969Z,97155.75
2022-09-16T23:32:21.755Z,97155.34
2022-09-16T23:35:23.644Z,97147.78
2022-09-16T23:38:25.578Z,97142.66
2022-09-16T23:41:27.845Z,97142.22
2022-09-16T23:44:29.573Z,97142.13
2022-09-16T23:47:31.321Z,97143.34
2022-09-16T23:50:33.267Z,97141.66
2022-09-16T23:53:35.986Z,97146.81
2022-09-16T23:56:37.715Z,97150.06
2022-09-16T23:59:39.664Z,97147.81
